sensor_id;sensor_type;location;lat;lon;timestamp;temperature;humidity
21191;DHT22;10753;52.304;20.990;2022-08-18T00:00:48;21.10;1.00
21191;DHT22;10753;52.304;20.990;2022-08-18T00:03:14;21.10;1.00
21191;DHT22;10753;52.304;20.990;2022-08-18T00:05:39;21.10;1.00
21191;DHT22;10753;52.304;20.990;2022-08-18T00:08:05;21.00;1.00
21191;DHT22;10753;52.304;20.990;2022-08-18T00:10:32;20.90;1.00
21191;DHT22;10753;52.304;20.990;2022-08-18T00:12:58;20.90;1.00
21191;DHT22;10753;52.304;20.990;2022-08-18T00:15:24;20.90;99.90
21191;DHT22;10753;52.304;20.990;2022-08-18T00:17:50;20.90;28.40
21191;DHT22;10753;52.304;20.990;2022-08-18T00:20:19;20.90;99.90
21191;DHT22;10753;52.304;20.990;2022-08-18T00:22:45;20.80;99.90
21191;DHT22;10753;52.304;20.990;2022-08-18T00:25:13;20.70;99.90
21191;DHT22;10753;52.304;20.990;2022-08-18T00:27:39;20.80;99.90
21191;DHT22;10753;52.304;20.990;2022-08-18T00:30:09;20.70;99.90
21191;DHT22;10753;52.304;20.990;2022-08-18T00:32:39;20.70;1.00
21191;DHT22;10753;52.304;20.990;2022-08-18T00:35:11;20.70;1.00
21191;DHT22;10753;52.304;20.990;2022-08-18T00:37:41;20.60;1.00
21191;DHT22;10753;52.304;20.990;2022-08-18T00:40:10;20.50;1.00
21191;DHT22;10753;52.304;20.990;2022-08-18T00:42:42;20.40;1.00
21191;DHT22;10753;52.304;20.990;2022-08-18T00:45:13;20.40;1.00
21191;DHT22;10753;52.304;20.990;2022-08-18T00:47:39;20.40;1.00
21191;DHT22;10753;52.304;20.990;2022-08-18T00:50:05;20.50;1.00
21191;DHT22;10753;52.304;20.990;2022-08-18T00:52:31;20.40;1.00
21191;DHT22;10753;52.304;20.990;2022-08-18T00:54:58;20.40;1.00
21191;DHT22;10753;52.304;20.990;2022-08-18T00:57:27;20.30;1.00
21191;DHT22;10753;52.304;20.990;2022-08-18T01:00:00;20.30;1.00
21191;DHT22;10753;52.304;20.990;2022-08-18T01:02:35;20.10;1.00
21191;DHT22;10753;52.304;20.990;2022-08-18T01:05:09;20.50;1.00
21191;DHT22;10753;52.304;20.990;2022-08-18T01:07:39;20.00;1.00
21191;DHT22;10753;52.304;20.990;2022-08-18T01:10:11;19.90;1.00
21191;DHT22;10753;52.304;20.990;2022-08-18T01:12:48;19.80;1.00
21191;DHT22;10753;52.304;20.990;2022-08-18T01:15:16;19.80;1.00
21191;DHT22;10753;52.304;20.990;2022-08-18T01:17:42;19.80;1.00
21191;DHT22;10753;52.304;20.990;2022-08-18T01:20:33;19.80;1.00
21191;DHT22;10753;52.304;20.990;2022-08-18T01:23:19;19.70;1.00
21191;DHT22;10753;52.304;20.990;2022-08-18T01:25:47;19.70;1.00
21191;DHT22;10753;52.304;20.990;2022-08-18T01:28:26;19.60;1.00
21191;DHT22;10753;52.304;20.990;2022-08-18T01:30:54;19.60;1.00
21191;DHT22;10753;52.304;20.990;2022-08-18T01:33:24;19.60;1.00
21191;DHT22;10753;52.304;20.990;2022-08-18T01:35:52;19.60;14.30
21191;DHT22;10753;52.304;20.990;2022-08-18T01:38:19;19.60;2.80
21191;DHT22;10753;52.304;20.990;2022-08-18T01:40:47;19.60;61.20
21191;DHT22;10753;52.304;20.990;2022-08-18T01:43:14;19.60;39.00
21191;DHT22;10753;52.304;20.990;2022-08-18T01:45:41;19.60;21.50
21191;DHT22;10753;52.304;20.990;2022-08-18T01:48:07;19.60;89.70
21191;DHT22;10753;52.304;20.990;2022-08-18T01:50:35;19.50;73.70
21191;DHT22;10753;52.304;20.990;2022-08-18T01:53:03;19.50;99.90
21191;DHT22;10753;52.304;20.990;2022-08-18T01:55:34;19.50;99.90
21191;DHT22;10753;52.304;20.990;2022-08-18T01:58:00;19.40;99.90
21191;DHT22;10753;52.304;20.990;2022-08-18T02:00:27;19.30;99.90
21191;DHT22;10753;52.304;20.990;2022-08-18T02:02:53;19.30;99.90
21191;DHT22;10753;52.304;20.990;2022-08-18T02:05:29;19.20;99.90
21191;DHT22;10753;52.304;20.990;2022-08-18T02:07:56;19.10;99.90
21191;DHT22;10753;52.304;20.990;2022-08-18T02:10:21;19.10;99.90
21191;DHT22;10753;52.304;20.990;2022-08-18T02:12:48;19.10;99.90
21191;DHT22;10753;52.304;20.990;2022-08-18T02:15:13;19.00;99.90
21191;DHT22;10753;52.304;20.990;2022-08-18T02:17:43;19.00;99.90
21191;DHT22;10753;52.304;20.990;2022-08-18T02:20:13;19.00;99.90
21191;DHT22;10753;52.304;20.990;2022-08-18T02:22:40;19.00;99.90
21191;DHT22;10753;52.304;20.990;2022-08-18T02:25:06;19.00;99.90
21191;DHT22;10753;52.304;20.990;2022-08-18T02:27:31;19.00;99.90
21191;DHT22;10753;52.304;20.990;2022-08-18T02:30:03;19.00;99.90
21191;DHT22;10753;52.304;20.990;2022-08-18T02:32:31;19.00;99.90
21191;DHT22;10753;52.304;20.990;2022-08-18T02:34:57;19.00;99.90
21191;DHT22;10753;52.304;20.990;2022-08-18T02:37:22;18.90;99.90
21191;DHT22;10753;52.304;20.990;2022-08-18T02:39:48;18.90;99.90
21191;DHT22;10753;52.304;20.990;2022-08-18T02:42:14;18.90;99.90
21191;DHT22;10753;52.304;20.990;2022-08-18T02:44:40;18.80;99.90
21191;DHT22;10753;52.304;20.990;2022-08-18T02:47:05;18.80;99.90
21191;DHT22;10753;52.304;20.990;2022-08-18T02:49:31;18.80;99.90
21191;DHT22;10753;52.304;20.990;2022-08-18T02:51:57;18.80;99.90
21191;DHT22;10753;52.304;20.990;2022-08-18T02:54:23;18.80;99.90
21191;DHT22;10753;52.304;20.990;2022-08-18T02:56:50;18.80;99.90
21191;DHT22;10753;52.304;20.990;2022-08-18T02:59:22;18.80;99.90
21191;DHT22;10753;52.304;20.990;2022-08-18T03:01:51;18.70;99.90
21191;DHT22;10753;52.304;20.990;2022-08-18T03:04:23;18.70;99.90
21191;DHT22;10753;52.304;20.990;2022-08-18T03:06:52;18.70;99.90
21191;DHT22;10753;52.304;20.990;2022-08-18T03:09:18;18.60;99.90
21191;DHT22;10753;52.304;20.990;2022-08-18T03:11:44;18.80;99.90
21191;DHT22;10753;52.304;20.990;2022-08-18T03:14:11;18.90;99.90
21191;DHT22;10753;52.304;20.990;2022-08-18T03:16:44;18.80;99.90
21191;DHT22;10753;52.304;20.990;2022-08-18T03:19:10;18.90;99.90
21191;DHT22;10753;52.304;20.990;2022-08-18T03:21:39;18.90;99.90
21191;DHT22;10753;52.304;20.990;2022-08-18T03:24:05;18.90;99.90
21191;DHT22;10753;52.304;20.990;2022-08-18T03:26:31;18.90;99.90
21191;DHT22;10753;52.304;20.990;2022-08-18T03:28:58;19.50;99.90
21191;DHT22;10753;52.304;20.990;2022-08-18T03:31:26;18.90;99.90
21191;DHT22;10753;52.304;20.990;2022-08-18T03:33:53;19.00;99.90
21191;DHT22;10753;52.304;20.990;2022-08-18T03:36:22;19.00;99.90
21191;DHT22;10753;52.304;20.990;2022-08-18T03:38:49;19.00;99.90
21191;DHT22;10753;52.304;20.990;2022-08-18T03:41:17;19.10;99.90
21191;DHT22;10753;52.304;20.990;2022-08-18T03:43:43;19.20;99.90
21191;DHT22;10753;52.304;20.990;2022-08-18T03:46:12;19.30;99.90
21191;DHT22;10753;52.304;20.990;2022-08-18T03:48:40;19.20;99.90
21191;DHT22;10753;52.304;20.990;2022-08-18T03:51:14;19.20;99.90
21191;DHT22;10753;52.304;20.990;2022-08-18T03:53:41;19.30;99.90
21191;DHT22;10753;52.304;20.990;2022-08-18T03:56:09;19.20;99.90
21191;DHT22;10753;52.304;20.990;2022-08-18T03:58:40;19.20;99.90
21191;DHT22;10753;52.304;20.990;2022-08-18T04:01:06;19.30;99.90
21191;DHT22;10753;52.304;20.990;2022-08-18T04:03:32;19.30;99.90
21191;DHT22;10753;52.304;20.990;2022-08-18T04:05:58;19.30;99.90
21191;DHT22;10753;52.304;20.990;2022-08-18T04:08:23;19.50;99.90
21191;DHT22;10753;52.304;20.990;2022-08-18T04:10:49;19.60;99.90
21191;DHT22;10753;52.304;20.990;2022-08-18T04:13:15;19.70;99.90
21191;DHT22;10753;52.304;20.990;2022-08-18T04:15:40;19.70;99.90
21191;DHT22;10753;52.304;20.990;2022-08-18T04:18:06;19.70;99.90
21191;DHT22;10753;52.304;20.990;2022-08-18T04:20:33;19.80;99.90
21191;DHT22;10753;52.304;20.990;2022-08-18T04:23:00;19.90;99.90
21191;DHT22;10753;52.304;20.990;2022-08-18T04:25:26;20.00;99.90
21191;DHT22;10753;52.304;20.990;2022-08-18T04:27:52;20.10;99.90
21191;DHT22;10753;52.304;20.990;2022-08-18T04:30:24;20.20;92.60
21191;DHT22;10753;52.304;20.990;2022-08-18T04:32:50;20.30;1.00
21191;DHT22;10753;52.304;20.990;2022-08-18T04:35:15;20.40;1.00
21191;DHT22;10753;52.304;20.990;2022-08-18T04:37:41;20.50;1.00
21191;DHT22;10753;52.304;20.990;2022-08-18T04:40:09;20.60;1.00
21191;DHT22;10753;52.304;20.990;2022-08-18T04:42:35;20.70;1.00
21191;DHT22;10753;52.304;20.990;2022-08-18T04:45:01;20.80;1.00
21191;DHT22;10753;52.304;20.990;2022-08-18T04:47:26;21.00;1.00
21191;DHT22;10753;52.304;20.990;2022-08-18T04:49:52;21.00;1.00
21191;DHT22;10753;52.304;20.990;2022-08-18T04:52:18;21.10;1.00
21191;DHT22;10753;52.304;20.990;2022-08-18T04:55:02;21.20;1.00
21191;DHT22;10753;52.304;20.990;2022-08-18T04:57:28;21.40;99.90
21191;DHT22;10753;52.304;20.990;2022-08-18T04:59:56;21.50;99.90
21191;DHT22;10753;52.304;20.990;2022-08-18T05:02:22;21.70;99.90
21191;DHT22;10753;52.304;20.990;2022-08-18T05:04:48;21.70;99.90
21191;DHT22;10753;52.304;20.990;2022-08-18T05:07:18;21.90;99.90
21191;DHT22;10753;52.304;20.990;2022-08-18T05:09:44;21.90;1.00
21191;DHT22;10753;52.304;20.990;2022-08-18T05:12:12;22.10;1.00
21191;DHT22;10753;52.304;20.990;2022-08-18T05:14:42;22.20;1.00
21191;DHT22;10753;52.304;20.990;2022-08-18T05:17:09;22.30;1.00
21191;DHT22;10753;52.304;20.990;2022-08-18T05:19:35;22.40;1.00
21191;DHT22;10753;52.304;20.990;2022-08-18T05:22:01;22.50;1.00
21191;DHT22;10753;52.304;20.990;2022-08-18T05:24:29;22.60;99.90
21191;DHT22;10753;52.304;20.990;2022-08-18T05:26:55;22.70;99.90
21191;DHT22;10753;52.304;20.990;2022-08-18T05:29:22;22.80;99.90
21191;DHT22;10753;52.304;20.990;2022-08-18T05:31:48;23.10;99.90
21191;DHT22;10753;52.304;20.990;2022-08-18T05:34:16;23.20;1.00
21191;DHT22;10753;52.304;20.990;2022-08-18T05:41:42;23.60;99.90
21191;DHT22;10753;52.304;20.990;2022-08-18T05:44:13;23.70;99.90
21191;DHT22;10753;52.304;20.990;2022-08-18T05:49:09;24.10;1.00
21191;DHT22;10753;52.304;20.990;2022-08-18T05:51:44;24.40;1.00
21191;DHT22;10753;52.304;20.990;2022-08-18T05:54:11;24.60;99.90
21191;DHT22;10753;52.304;20.990;2022-08-18T05:57:01;24.70;1.00
21191;DHT22;10753;52.304;20.990;2022-08-18T05:59:36;25.00;1.00
21191;DHT22;10753;52.304;20.990;2022-08-18T06:07:09;25.50;1.00
21191;DHT22;10753;52.304;20.990;2022-08-18T06:09:50;25.60;1.00
21191;DHT22;10753;52.304;20.990;2022-08-18T06:14:50;26.00;99.90
21191;DHT22;10753;52.304;20.990;2022-08-18T06:23:12;28.80;1.00
21191;DHT22;10753;52.304;20.990;2022-08-18T06:28:37;32.40;1.00
21191;DHT22;10753;52.304;20.990;2022-08-18T06:36:33;34.90;1.00
21191;DHT22;10753;52.304;20.990;2022-08-18T06:41:46;36.70;1.00
21191;DHT22;10753;52.304;20.990;2022-08-18T06:47:09;37.70;1.00
21191;DHT22;10753;52.304;20.990;2022-08-18T06:49:43;38.20;1.00
21191;DHT22;10753;52.304;20.990;2022-08-18T06:52:28;38.60;1.00
21191;DHT22;10753;52.304;20.990;2022-08-18T06:54:57;38.90;1.00
21191;DHT22;10753;52.304;20.990;2022-08-18T06:59:59;40.00;1.00
21191;DHT22;10753;52.304;20.990;2022-08-18T07:02:48;40.70;1.00
21191;DHT22;10753;52.304;20.990;2022-08-18T07:05:26;41.30;1.00
21191;DHT22;10753;52.304;20.990;2022-08-18T07:08:28;42.20;1.00
21191;DHT22;10753;52.304;20.990;2022-08-18T07:10:54;42.80;1.00
21191;DHT22;10753;52.304;20.990;2022-08-18T07:13:22;43.30;1.00
21191;DHT22;10753;52.304;20.990;2022-08-18T07:15:51;44.10;1.00
21191;DHT22;10753;52.304;20.990;2022-08-18T07:18:23;44.30;1.00
21191;DHT22;10753;52.304;20.990;2022-08-18T07:20:50;44.40;1.00
21191;DHT22;10753;52.304;20.990;2022-08-18T07:25:58;46.20;1.00
21191;DHT22;10753;52.304;20.990;2022-08-18T07:34:05;46.40;1.00
21191;DHT22;10753;52.304;20.990;2022-08-18T07:36:49;46.70;1.00
21191;DHT22;10753;52.304;20.990;2022-08-18T07:39:35;46.90;1.00
21191;DHT22;10753;52.304;20.990;2022-08-18T07:42:12;47.20;1.00
21191;DHT22;10753;52.304;20.990;2022-08-18T07:44:56;47.20;1.00
21191;DHT22;10753;52.304;20.990;2022-08-18T07:47:36;47.20;1.00
21191;DHT22;10753;52.304;20.990;2022-08-18T07:50:05;47.50;1.00
21191;DHT22;10753;52.304;20.990;2022-08-18T07:52:41;48.20;1.00
21191;DHT22;10753;52.304;20.990;2022-08-18T08:00:33;49.00;1.00
21191;DHT22;10753;52.304;20.990;2022-08-18T08:03:25;49.10;1.00
21191;DHT22;10753;52.304;20.990;2022-08-18T08:06:24;49.70;1.00
21191;DHT22;10753;52.304;20.990;2022-08-18T08:09:19;49.90;1.00
21191;DHT22;10753;52.304;20.990;2022-08-18T08:12:15;50.70;1.00
21191;DHT22;10753;52.304;20.990;2022-08-18T08:14:49;51.60;1.00
21191;DHT22;10753;52.304;20.990;2022-08-18T08:17:47;52.60;1.00
21191;DHT22;10753;52.304;20.990;2022-08-18T08:23:34;52.60;1.00
21191;DHT22;10753;52.304;20.990;2022-08-18T08:37:01;52.90;1.00
21191;DHT22;10753;52.304;20.990;2022-08-18T08:42:15;52.50;1.00
21191;DHT22;10753;52.304;20.990;2022-08-18T08:44:48;53.00;1.00
21191;DHT22;10753;52.304;20.990;2022-08-18T08:47:28;54.00;1.00
21191;DHT22;10753;52.304;20.990;2022-08-18T08:50:13;55.00;1.00
21191;DHT22;10753;52.304;20.990;2022-08-18T08:55:36;54.70;1.00
21191;DHT22;10753;52.304;20.990;2022-08-18T08:58:21;54.10;1.00
21191;DHT22;10753;52.304;20.990;2022-08-18T09:00:49;53.70;1.00
21191;DHT22;10753;52.304;20.990;2022-08-18T09:08:50;54.00;1.00
21191;DHT22;10753;52.304;20.990;2022-08-18T09:36:20;54.90;1.00
21191;DHT22;10753;52.304;20.990;2022-08-18T09:39:04;55.00;1.00
21191;DHT22;10753;52.304;20.990;2022-08-18T09:42:06;55.50;1.00
21191;DHT22;10753;52.304;20.990;2022-08-18T09:47:06;56.20;1.00
21191;DHT22;10753;52.304;20.990;2022-08-18T09:49:41;55.00;1.00
21191;DHT22;10753;52.304;20.990;2022-08-18T09:57:22;54.00;1.00
21191;DHT22;10753;52.304;20.990;2022-08-18T09:59:50;54.10;1.00
21191;DHT22;10753;52.304;20.990;2022-08-18T10:10:33;53.70;1.00
21191;DHT22;10753;52.304;20.990;2022-08-18T10:16:15;52.40;1.00
21191;DHT22;10753;52.304;20.990;2022-08-18T10:19:11;50.00;1.00
21191;DHT22;10753;52.304;20.990;2022-08-18T10:24:40;50.00;1.00
21191;DHT22;10753;52.304;20.990;2022-08-18T10:32:55;51.10;1.00
21191;DHT22;10753;52.304;20.990;2022-08-18T10:38:54;52.50;1.00
21191;DHT22;10753;52.304;20.990;2022-08-18T10:41:05;53.10;1.00
21191;DHT22;10753;52.304;20.990;2022-08-18T10:43:40;51.60;1.00
21191;DHT22;10753;52.304;20.990;2022-08-18T10:46:18;47.50;1.00
21191;DHT22;10753;52.304;20.990;2022-08-18T10:49:00;48.00;1.00
21191;DHT22;10753;52.304;20.990;2022-08-18T10:57:13;50.10;1.00
21191;DHT22;10753;52.304;20.990;2022-08-18T10:59:57;48.80;1.00
21191;DHT22;10753;52.304;20.990;2022-08-18T11:02:42;48.90;1.00
21191;DHT22;10753;52.304;20.990;2022-08-18T11:05:22;48.80;1.00
21191;DHT22;10753;52.304;20.990;2022-08-18T11:07:52;49.10;1.00
21191;DHT22;10753;52.304;20.990;2022-08-18T11:10:42;48.30;1.00
21191;DHT22;10753;52.304;20.990;2022-08-18T11:18:56;48.60;1.00
21191;DHT22;10753;52.304;20.990;2022-08-18T11:21:45;48.90;1.00
21191;DHT22;10753;52.304;20.990;2022-08-18T11:24:15;49.40;1.00
21191;DHT22;10753;52.304;20.990;2022-08-18T11:27:04;49.70;1.00
21191;DHT22;10753;52.304;20.990;2022-08-18T11:29:38;49.40;1.00
21191;DHT22;10753;52.304;20.990;2022-08-18T11:35:14;49.70;1.00
21191;DHT22;10753;52.304;20.990;2022-08-18T11:37:48;49.90;1.00
21191;DHT22;10753;52.304;20.990;2022-08-18T11:40:37;50.00;1.00
21191;DHT22;10753;52.304;20.990;2022-08-18T11:43:13;49.70;1.00
21191;DHT22;10753;52.304;20.990;2022-08-18T11:53:38;49.40;1.00
21191;DHT22;10753;52.304;20.990;2022-08-18T11:58:59;49.40;1.00
21191;DHT22;10753;52.304;20.990;2022-08-18T12:04:09;50.20;1.00
21191;DHT22;10753;52.304;20.990;2022-08-18T12:09:43;49.10;1.00
21191;DHT22;10753;52.304;20.990;2022-08-18T12:17:28;46.00;1.00
21191;DHT22;10753;52.304;20.990;2022-08-18T12:19:55;45.70;1.00
21191;DHT22;10753;52.304;20.990;2022-08-18T12:22:25;46.50;1.00
21191;DHT22;10753;52.304;20.990;2022-08-18T12:24:52;46.90;1.00
21191;DHT22;10753;52.304;20.990;2022-08-18T12:27:20;47.10;1.00
21191;DHT22;10753;52.304;20.990;2022-08-18T12:29:46;47.30;1.00
21191;DHT22;10753;52.304;20.990;2022-08-18T12:32:12;47.10;1.00
21191;DHT22;10753;52.304;20.990;2022-08-18T12:34:38;46.20;1.00
21191;DHT22;10753;52.304;20.990;2022-08-18T12:37:07;46.10;1.00
21191;DHT22;10753;52.304;20.990;2022-08-18T12:39:34;46.30;1.00
21191;DHT22;10753;52.304;20.990;2022-08-18T12:41:59;46.60;1.00
21191;DHT22;10753;52.304;20.990;2022-08-18T12:44:25;46.60;1.00
21191;DHT22;10753;52.304;20.990;2022-08-18T12:46:51;46.10;1.00
21191;DHT22;10753;52.304;20.990;2022-08-18T12:49:20;46.50;1.00
21191;DHT22;10753;52.304;20.990;2022-08-18T12:51:46;46.50;1.00
21191;DHT22;10753;52.304;20.990;2022-08-18T12:54:12;46.70;1.00
21191;DHT22;10753;52.304;20.990;2022-08-18T12:56:39;46.50;1.00
21191;DHT22;10753;52.304;20.990;2022-08-18T12:59:06;46.70;1.00
21191;DHT22;10753;52.304;20.990;2022-08-18T13:01:33;47.00;1.00
21191;DHT22;10753;52.304;20.990;2022-08-18T13:03:59;46.90;1.00
21191;DHT22;10753;52.304;20.990;2022-08-18T13:06:26;46.80;1.00
21191;DHT22;10753;52.304;20.990;2022-08-18T13:08:52;46.10;1.00
21191;DHT22;10753;52.304;20.990;2022-08-18T13:11:20;43.50;1.00
21191;DHT22;10753;52.304;20.990;2022-08-18T13:13:47;43.10;1.00
21191;DHT22;10753;52.304;20.990;2022-08-18T13:16:13;43.50;1.00
21191;DHT22;10753;52.304;20.990;2022-08-18T13:18:40;43.50;1.00
21191;DHT22;10753;52.304;20.990;2022-08-18T13:21:07;44.10;1.00
21191;DHT22;10753;52.304;20.990;2022-08-18T13:23:35;44.10;1.00
21191;DHT22;10753;52.304;20.990;2022-08-18T13:26:01;43.70;1.00
21191;DHT22;10753;52.304;20.990;2022-08-18T13:28:32;43.20;1.00
21191;DHT22;10753;52.304;20.990;2022-08-18T13:30:58;42.30;1.00
21191;DHT22;10753;52.304;20.990;2022-08-18T13:33:24;42.20;1.00
21191;DHT22;10753;52.304;20.990;2022-08-18T13:35:51;42.50;1.00
21191;DHT22;10753;52.304;20.990;2022-08-18T13:38:17;42.60;1.00
21191;DHT22;10753;52.304;20.990;2022-08-18T13:40:55;43.00;1.00
21191;DHT22;10753;52.304;20.990;2022-08-18T13:43:26;43.70;1.00
21191;DHT22;10753;52.304;20.990;2022-08-18T13:45:54;43.60;1.00
21191;DHT22;10753;52.304;20.990;2022-08-18T13:48:20;43.40;1.00
21191;DHT22;10753;52.304;20.990;2022-08-18T13:50:45;42.20;1.00
21191;DHT22;10753;52.304;20.990;2022-08-18T13:53:15;41.50;1.00
21191;DHT22;10753;52.304;20.990;2022-08-18T13:55:46;42.30;1.00
21191;DHT22;10753;52.304;20.990;2022-08-18T13:58:12;43.10;1.00
21191;DHT22;10753;52.304;20.990;2022-08-18T14:00:38;43.80;1.00
21191;DHT22;10753;52.304;20.990;2022-08-18T14:03:05;44.50;1.00
21191;DHT22;10753;52.304;20.990;2022-08-18T14:05:31;44.00;1.00
21191;DHT22;10753;52.304;20.990;2022-08-18T14:07:57;44.40;1.00
21191;DHT22;10753;52.304;20.990;2022-08-18T14:10:22;43.00;1.00
21191;DHT22;10753;52.304;20.990;2022-08-18T14:12:52;42.20;1.00
21191;DHT22;10753;52.304;20.990;2022-08-18T14:15:18;42.30;1.00
21191;DHT22;10753;52.304;20.990;2022-08-18T14:17:45;42.50;1.00
21191;DHT22;10753;52.304;20.990;2022-08-18T14:20:11;42.80;1.00
21191;DHT22;10753;52.304;20.990;2022-08-18T14:22:57;43.10;1.00
21191;DHT22;10753;52.304;20.990;2022-08-18T14:25:42;42.20;1.00
21191;DHT22;10753;52.304;20.990;2022-08-18T14:28:28;40.20;1.00
21191;DHT22;10753;52.304;20.990;2022-08-18T14:30:54;39.60;1.00
21191;DHT22;10753;52.304;20.990;2022-08-18T14:33:22;38.20;1.00
21191;DHT22;10753;52.304;20.990;2022-08-18T14:35:48;37.00;1.00
21191;DHT22;10753;52.304;20.990;2022-08-18T14:38:14;36.90;1.00
21191;DHT22;10753;52.304;20.990;2022-08-18T14:40:42;35.70;1.00
21191;DHT22;10753;52.304;20.990;2022-08-18T14:43:10;34.90;1.00
21191;DHT22;10753;52.304;20.990;2022-08-18T14:45:35;35.60;1.00
21191;DHT22;10753;52.304;20.990;2022-08-18T14:48:03;36.60;1.00
21191;DHT22;10753;52.304;20.990;2022-08-18T14:50:29;36.40;1.00
21191;DHT22;10753;52.304;20.990;2022-08-18T14:52:54;35.30;1.00
21191;DHT22;10753;52.304;20.990;2022-08-18T14:55:20;34.90;1.00
21191;DHT22;10753;52.304;20.990;2022-08-18T14:57:46;36.00;1.00
21191;DHT22;10753;52.304;20.990;2022-08-18T15:00:14;36.80;1.00
21191;DHT22;10753;52.304;20.990;2022-08-18T15:02:42;37.20;1.00
21191;DHT22;10753;52.304;20.990;2022-08-18T15:05:09;36.80;1.00
21191;DHT22;10753;52.304;20.990;2022-08-18T15:07:35;36.00;1.00
21191;DHT22;10753;52.304;20.990;2022-08-18T15:10:09;35.80;1.00
21191;DHT22;10753;52.304;20.990;2022-08-18T15:12:35;34.70;1.00
21191;DHT22;10753;52.304;20.990;2022-08-18T15:15:03;34.00;1.00
21191;DHT22;10753;52.304;20.990;2022-08-18T15:17:28;33.40;1.00
21191;DHT22;10753;52.304;20.990;2022-08-18T15:19:54;33.00;1.00
21191;DHT22;10753;52.304;20.990;2022-08-18T15:22:20;32.50;1.00
21191;DHT22;10753;52.304;20.990;2022-08-18T15:25:05;32.30;1.00
21191;DHT22;10753;52.304;20.990;2022-08-18T15:27:50;32.10;1.00
21191;DHT22;10753;52.304;20.990;2022-08-18T15:30:17;32.30;1.00
21191;DHT22;10753;52.304;20.990;2022-08-18T15:32:44;32.20;1.00
21191;DHT22;10753;52.304;20.990;2022-08-18T15:35:11;32.10;1.00
21191;DHT22;10753;52.304;20.990;2022-08-18T15:37:38;32.10;1.00
21191;DHT22;10753;52.304;20.990;2022-08-18T15:40:14;32.00;1.00
21191;DHT22;10753;52.304;20.990;2022-08-18T15:42:46;32.30;1.00
21191;DHT22;10753;52.304;20.990;2022-08-18T15:45:24;32.50;1.00
21191;DHT22;10753;52.304;20.990;2022-08-18T15:47:50;32.50;1.00
21191;DHT22;10753;52.304;20.990;2022-08-18T15:50:17;32.30;1.00
21191;DHT22;10753;52.304;20.990;2022-08-18T15:52:52;32.20;1.00
21191;DHT22;10753;52.304;20.990;2022-08-18T15:55:20;31.90;1.00
21191;DHT22;10753;52.304;20.990;2022-08-18T15:57:46;31.80;1.00
21191;DHT22;10753;52.304;20.990;2022-08-18T16:00:14;31.70;1.00
21191;DHT22;10753;52.304;20.990;2022-08-18T16:02:56;31.70;1.00
21191;DHT22;10753;52.304;20.990;2022-08-18T16:05:24;31.70;1.00
21191;DHT22;10753;52.304;20.990;2022-08-18T16:07:50;31.60;1.00
21191;DHT22;10753;52.304;20.990;2022-08-18T16:10:18;31.50;1.00
21191;DHT22;10753;52.304;20.990;2022-08-18T16:12:45;31.30;1.00
21191;DHT22;10753;52.304;20.990;2022-08-18T16:15:17;31.20;1.00
21191;DHT22;10753;52.304;20.990;2022-08-18T16:17:43;31.00;1.00
21191;DHT22;10753;52.304;20.990;2022-08-18T16:20:10;30.90;1.00
21191;DHT22;10753;52.304;20.990;2022-08-18T16:22:36;30.70;1.00
21191;DHT22;10753;52.304;20.990;2022-08-18T16:25:04;30.70;1.00
21191;DHT22;10753;52.304;20.990;2022-08-18T16:27:31;30.70;1.00
21191;DHT22;10753;52.304;20.990;2022-08-18T16:29:58;30.60;1.00
21191;DHT22;10753;52.304;20.990;2022-08-18T16:32:24;30.50;1.00
21191;DHT22;10753;52.304;20.990;2022-08-18T16:34:50;30.60;1.00
21191;DHT22;10753;52.304;20.990;2022-08-18T16:37:19;30.60;1.00
21191;DHT22;10753;52.304;20.990;2022-08-18T16:39:45;30.50;1.00
21191;DHT22;10753;52.304;20.990;2022-08-18T16:42:11;30.40;1.00
21191;DHT22;10753;52.304;20.990;2022-08-18T16:44:37;30.30;1.00
21191;DHT22;10753;52.304;20.990;2022-08-18T16:47:04;30.30;1.00
21191;DHT22;10753;52.304;20.990;2022-08-18T16:49:29;30.20;1.00
21191;DHT22;10753;52.304;20.990;2022-08-18T16:51:59;30.10;1.00
21191;DHT22;10753;52.304;20.990;2022-08-18T16:54:30;30.10;1.00
21191;DHT22;10753;52.304;20.990;2022-08-18T16:56:57;30.00;1.00
21191;DHT22;10753;52.304;20.990;2022-08-18T16:59:23;30.00;1.00
21191;DHT22;10753;52.304;20.990;2022-08-18T17:02:07;29.90;1.00
21191;DHT22;10753;52.304;20.990;2022-08-18T17:04:51;29.90;1.00
21191;DHT22;10753;52.304;20.990;2022-08-18T17:07:17;29.90;1.00
21191;DHT22;10753;52.304;20.990;2022-08-18T17:09:43;29.80;1.00
21191;DHT22;10753;52.304;20.990;2022-08-18T17:12:09;29.70;1.00
21191;DHT22;10753;52.304;20.990;2022-08-18T17:14:36;29.60;1.00
21191;DHT22;10753;52.304;20.990;2022-08-18T17:17:03;29.40;1.00
21191;DHT22;10753;52.304;20.990;2022-08-18T17:19:32;29.20;1.00
21191;DHT22;10753;52.304;20.990;2022-08-18T17:22:02;29.10;1.00
21191;DHT22;10753;52.304;20.990;2022-08-18T17:24:29;28.90;1.00
21191;DHT22;10753;52.304;20.990;2022-08-18T17:27:18;28.80;1.00
21191;DHT22;10753;52.304;20.990;2022-08-18T17:29:57;28.60;1.00
21191;DHT22;10753;52.304;20.990;2022-08-18T17:32:41;28.60;1.00
21191;DHT22;10753;52.304;20.990;2022-08-18T17:37:49;28.30;1.00
21191;DHT22;10753;52.304;20.990;2022-08-18T17:40:33;28.20;1.00
21191;DHT22;10753;52.304;20.990;2022-08-18T17:43:00;28.10;1.00
21191;DHT22;10753;52.304;20.990;2022-08-18T17:45:29;28.00;1.00
21191;DHT22;10753;52.304;20.990;2022-08-18T17:48:15;27.90;1.00
21191;DHT22;10753;52.304;20.990;2022-08-18T17:50:53;27.80;1.00
21191;DHT22;10753;52.304;20.990;2022-08-18T17:53:39;27.70;1.00
21191;DHT22;10753;52.304;20.990;2022-08-18T17:56:36;27.50;1.00
21191;DHT22;10753;52.304;20.990;2022-08-18T18:01:45;27.20;1.00
21191;DHT22;10753;52.304;20.990;2022-08-18T18:04:11;27.10;1.00
21191;DHT22;10753;52.304;20.990;2022-08-18T18:06:39;27.00;1.00
21191;DHT22;10753;52.304;20.990;2022-08-18T18:09:27;26.90;1.00
21191;DHT22;10753;52.304;20.990;2022-08-18T18:11:53;26.80;1.00
21191;DHT22;10753;52.304;20.990;2022-08-18T18:17:05;26.80;1.00
21191;DHT22;10753;52.304;20.990;2022-08-18T18:19:32;26.80;1.00
21191;DHT22;10753;52.304;20.990;2022-08-18T18:22:27;26.80;1.00
21191;DHT22;10753;52.304;20.990;2022-08-18T18:24:58;26.80;1.00
21191;DHT22;10753;52.304;20.990;2022-08-18T18:27:38;26.80;1.00
21191;DHT22;10753;52.304;20.990;2022-08-18T18:30:23;26.80;1.00
21191;DHT22;10753;52.304;20.990;2022-08-18T18:32:59;26.70;1.00
21191;DHT22;10753;52.304;20.990;2022-08-18T18:35:32;26.60;1.00
21191;DHT22;10753;52.304;20.990;2022-08-18T18:38:33;26.50;1.00
21191;DHT22;10753;52.304;20.990;2022-08-18T18:41:27;26.30;1.00
21191;DHT22;10753;52.304;20.990;2022-08-18T18:44:05;26.10;1.00
21191;DHT22;10753;52.304;20.990;2022-08-18T18:46:37;25.90;1.00